Time;durP1;ratioP1;P1;durP2;ratioP2;P2;SDS_P1;SDS_P2;PMS_P1;PMS_P2;Temp;Humidity;BMP_temperature;BMP_pressure;BME280_temperature;BME280_humidity;BME280_pressure;Samples;Min_cycle;Max_cycle;Signal;HPM_P1;HPM_P2
2021/05/16 00:01:02;;;;;;;9.28;4.47;;;;;;;34.40;34.28;160236.28;1589827;89;21856;-82
2021/05/16 00:03:35;;;;;;;7.50;4.20;;;;;;;34.41;34.27;160240.28;1597854;88;21911;-81
2021/05/16 00:06:08;;;;;;;6.40;4.03;;;;;;;34.22;34.46;160189.52;1597829;90;21412;-81
2021/05/16 00:08:41;;;;;;;4.83;4.20;;;;;;;34.19;34.54;160181.48;1599511;88;22572;-81
2021/05/16 00:11:13;;;;;;;4.62;3.47;;;;;;;34.14;34.60;160165.48;1613040;89;21782;-81
2021/05/16 00:13:47;;;;;;;5.37;4.15;;;;;;;34.17;34.52;160176.12;1602694;88;21380;-81
2021/05/16 00:16:20;;;;;;;6.00;3.80;;;;;;;34.10;34.60;160156.08;1558598;89;21285;-81
2021/05/16 00:18:53;;;;;;;6.97;4.42;;;;;;;34.13;34.60;160162.81;1619077;88;21710;-81
2021/05/16 00:21:25;;;;;;;4.83;3.55;;;;;;;34.10;34.66;160154.78;1631093;88;21356;-81
2021/05/16 00:23:57;;;;;;;5.28;3.80;;;;;;;34.12;34.63;160161.44;1624718;87;21823;-81
2021/05/16 00:26:30;;;;;;;7.60;3.95;;;;;;;34.21;34.57;160186.84;1603742;88;21230;-81
2021/05/16 00:29:03;;;;;;;5.80;3.80;;;;;;;34.20;34.71;160182.86;1598659;88;21215;-82
2021/05/16 00:31:36;;;;;;;5.08;3.40;;;;;;;34.24;34.73;160194.87;1606741;88;21360;-81
2021/05/16 00:34:08;;;;;;;5.12;3.85;;;;;;;34.24;34.70;160194.87;1608386;88;21261;-81
2021/05/16 00:36:41;;;;;;;5.45;3.58;;;;;;;34.21;34.63;160186.84;1630834;88;21979;-81
2021/05/16 00:39:14;;;;;;;4.65;3.70;;;;;;;34.23;34.57;160192.20;1640008;87;21847;-81
2021/05/16 00:41:46;;;;;;;4.25;3.58;;;;;;;34.16;34.59;160173.45;1649057;86;21204;-81
2021/05/16 00:44:19;;;;;;;6.58;3.12;;;;;;;34.20;34.52;160182.86;1649128;86;21241;-81
2021/05/16 00:46:51;;;;;;;6.20;3.42;;;;;;;34.15;34.51;160170.78;1640278;87;21960;-81
2021/05/16 00:49:24;;;;;;;4.67;3.77;;;;;;;34.12;34.54;160161.44;1630082;86;21388;-82
2021/05/16 00:51:56;;;;;;;5.12;3.70;;;;;;;34.10;34.56;160154.78;1605359;88;21372;-81
2021/05/16 00:54:30;;;;;;;4.03;3.30;;;;;;;34.09;34.58;160153.41;1604985;89;21280;-81
2021/05/16 00:57:02;;;;;;;4.58;2.90;;;;;;;34.14;34.49;160166.80;1605004;89;21250;-81
2021/05/16 00:59:35;;;;;;;3.80;3.10;;;;;;;34.09;34.52;160152.09;1605174;88;21368;-81
2021/05/16 01:02:07;;;;;;;3.90;3.45;;;;;;;34.07;34.50;160148.06;1609967;89;21269;-82
2021/05/16 01:04:43;;;;;;;4.65;3.42;;;;;;;34.06;34.45;160144.02;1615458;87;21379;-81
2021/05/16 01:07:16;;;;;;;5.25;3.20;;;;;;;33.98;34.51;160122.66;1640915;87;21221;-81
2021/05/16 01:09:48;;;;;;;3.20;2.90;;;;;;;33.97;34.56;160121.28;1605164;89;21412;-81
2021/05/16 01:12:29;;;;;;;4.25;3.22;;;;;;;33.99;34.45;160126.64;1605045;89;21204;-82
2021/05/16 01:14:59;;;;;;;5.28;3.17;;;;;;;33.85;34.51;160089.28;1614327;88;21218;-82
2021/05/16 01:17:30;;;;;;;4.65;2.87;;;;;;;33.82;34.47;160081.25;1630796;87;21420;-82
2021/05/16 01:20:11;;;;;;;4.60;2.70;;;;;;;33.68;34.62;160043.84;1637080;87;21324;-82
2021/05/16 01:22:46;;;;;;;3.60;2.98;;;;;;;33.68;34.68;160043.84;1644672;86;21183;-82
2021/05/16 01:25:19;;;;;;;3.00;2.27;;;;;;;33.67;34.58;160039.84;1631037;88;21399;-82
2021/05/16 01:27:51;;;;;;;1.90;1.70;;;;;;;33.67;34.50;160039.84;1630786;87;21238;-82
2021/05/16 01:30:24;;;;;;;1.80;1.70;;;;;;;33.63;34.50;160030.45;1631081;86;21302;-82
2021/05/16 01:32:56;;;;;;;2.83;1.60;;;;;;;33.60;34.54;160021.11;1631007;88;21805;-82
2021/05/16 01:35:29;;;;;;;2.55;2.05;;;;;;;33.61;34.51;160023.80;1641822;87;21232;-81
2021/05/16 01:38:03;;;;;;;2.50;2.30;;;;;;;33.60;34.56;160021.11;1649194;86;21253;-82
2021/05/16 01:40:38;;;;;;;3.75;2.75;;;;;;;33.70;34.47;160047.83;1649476;87;21269;-81
2021/05/16 01:43:14;;;;;;;3.52;2.65;;;;;;;33.70;34.52;160049.19;1568625;90;21380;-81
2021/05/16 01:45:47;;;;;;;5.25;2.85;;;;;;;33.63;34.53;160030.45;1583722;90;21250;-81
2021/05/16 01:48:19;;;;;;;5.10;3.12;;;;;;;33.58;34.52;160015.72;1583801;89;21721;-81
2021/05/16 01:50:51;;;;;;;6.28;4.10;;;;;;;33.69;34.35;160046.52;1622685;88;21335;-82
2021/05/16 01:53:24;;;;;;;7.05;4.47;;;;;;;33.65;34.46;160034.50;1626605;87;21745;-81
2021/05/16 01:55:58;;;;;;;6.90;4.12;;;;;;;33.66;34.61;160038.48;1603670;89;21416;-81
2021/05/16 01:58:30;;;;;;;8.88;5.35;;;;;;;33.62;34.71;160026.47;1632546;88;21265;-81
2021/05/16 02:01:04;;;;;;;7.22;4.78;;;;;;;33.66;34.70;160037.17;1603823;88;21349;-81
2021/05/16 02:03:39;;;;;;;6.87;4.30;;;;;;;33.61;34.81;160023.80;1631191;86;21374;-81
2021/05/16 02:06:13;;;;;;;5.33;4.42;;;;;;;33.76;34.64;160063.88;1586292;88;21258;-81
2021/05/16 02:08:47;;;;;;;4.90;3.20;;;;;;;33.74;34.61;160059.84;1612209;88;21288;-81
2021/05/16 02:11:22;;;;;;;4.22;3.10;;;;;;;33.58;34.80;160015.72;1615518;88;21388;-81
2021/05/16 02:13:56;;;;;;;6.45;3.37;;;;;;;33.50;34.87;159994.36;1631017;87;21396;-81
2021/05/16 02:16:28;;;;;;;5.30;3.42;;;;;;;33.63;34.65;160030.45;1631011;88;21223;-81
2021/05/16 02:19:02;;;;;;;6.37;4.00;;;;;;;33.50;34.72;159994.36;1634268;87;21218;-81
2021/05/16 02:21:37;;;;;;;5.05;3.58;;;;;;;33.50;34.75;159994.36;1654823;85;21406;-81
2021/05/16 02:24:09;;;;;;;5.75;3.08;;;;;;;33.48;34.80;159990.38;1633706;86;21873;-81
2021/05/16 02:26:47;;;;;;;5.67;2.87;;;;;;;33.48;34.75;159989.00;1611497;87;21910;-81
2021/05/16 02:29:19;;;;;;;4.25;3.37;;;;;;;33.48;34.73;159990.38;1621041;86;21954;-81
2021/05/16 02:31:52;;;;;;;4.62;3.60;;;;;;;33.46;34.70;159985.02;1658447;85;21394;-81
2021/05/16 02:34:25;;;;;;;5.62;3.58;;;;;;;33.40;34.76;159968.97;1658374;86;21343;-81
2021/05/16 02:36:57;;;;;;;6.80;3.10;;;;;;;33.38;34.74;159962.31;1658319;85;21878;-80
2021/05/16 02:39:30;;;;;;;4.22;3.10;;;;;;;33.41;34.69;159971.66;1650295;86;21344;-80
2021/05/16 02:42:02;;;;;;;5.03;3.55;;;;;;;33.39;34.73;159966.30;1640152;87;21260;-81
2021/05/16 02:44:35;;;;;;;4.45;3.10;;;;;;;33.30;34.88;159942.27;1639843;87;21218;-81
2021/05/16 02:47:08;;;;;;;6.03;3.22;;;;;;;33.31;34.94;159943.62;1640390;86;21209;-81
2021/05/16 02:49:40;;;;;;;4.05;2.90;;;;;;;33.29;34.97;159938.28;1615712;87;21348;-81
2021/05/16 02:52:13;;;;;;;8.53;3.10;;;;;;;33.31;34.95;159943.62;1613782;88;21757;-81
2021/05/16 02:54:47;;;;;;;3.35;2.70;;;;;;;35.23;33.34;160459.63;1643432;86;21350;-82
2021/05/16 02:57:21;;;;;;;3.22;2.50;;;;;;;33.43;34.82;159975.69;1658423;86;21224;-81
2021/05/16 02:59:54;;;;;;;2.70;2.40;;;;;;;33.43;34.88;159975.69;1658490;85;21832;-81
2021/05/16 03:02:28;;;;;;;2.92;2.00;;;;;;;33.45;34.94;159980.98;1612340;89;21360;-81
2021/05/16 03:05:02;;;;;;;2.55;2.08;;;;;;;33.26;35.15;159931.63;1629617;87;21226;-82
2021/05/16 03:07:34;;;;;;;2.35;1.82;;;;;;;33.37;35.23;159961.00;1604274;89;21317;-82
2021/05/16 03:10:08;;;;;;;3.05;2.17;;;;;;;33.48;35.20;159989.00;1613116;89;21770;-81
2021/05/16 03:12:40;;;;;;;5.55;3.05;;;;;;;33.56;35.20;160010.41;1626337;86;21362;-81
2021/05/16 03:15:14;;;;;;;5.30;2.87;;;;;;;33.73;35.06;160055.84;1640179;86;21360;-81
2021/05/16 03:17:47;;;;;;;4.45;2.87;;;;;;;33.76;35.16;160063.88;1633351;86;21376;-81
2021/05/16 03:20:19;;;;;;;2.90;2.58;;;;;;;33.68;35.31;160042.53;1651806;86;21265;-81
2021/05/16 03:22:53;;;;;;;2.87;2.33;;;;;;;33.65;35.53;160035.81;1603640;88;21395;-81
2021/05/16 03:25:26;;;;;;;3.70;3.10;;;;;;;33.80;35.43;160074.53;1631162;88;21915;-81
2021/05/16 03:27:59;;;;;;;8.85;3.90;;;;;;;33.64;35.69;160031.81;1615198;86;21310;-81
2021/05/16 03:30:31;;;;;;;4.42;3.83;;;;;;;33.67;35.74;160041.16;1632291;88;21353;-82
2021/05/16 03:33:04;;;;;;;8.93;5.35;;;;;;;33.53;36.04;160002.39;1632468;88;21353;-81
2021/05/16 03:35:36;;;;;;;11.53;7.65;;;;;;;33.48;36.21;159990.38;1633433;86;21340;-81
2021/05/16 03:38:08;;;;;;;11.40;7.65;;;;;;;33.52;36.26;160001.02;1638316;86;21368;-81
2021/05/16 03:40:41;;;;;;;10.43;7.80;;;;;;;33.54;36.32;160005.06;1632619;86;21844;-82
2021/05/16 03:43:13;;;;;;;11.00;7.08;;;;;;;33.60;36.33;160022.48;1629858;86;21438;-82
2021/05/16 03:45:46;;;;;;;11.05;7.17;;;;;;;33.65;36.37;160034.50;1641536;85;21379;-83
2021/05/16 03:48:18;;;;;;;10.70;6.62;;;;;;;33.87;36.25;160094.58;1635383;86;21840;-83
2021/05/16 03:50:50;;;;;;;9.45;5.40;;;;;;;34.05;36.11;160142.70;1635818;86;21225;-82
2021/05/16 03:53:23;;;;;;;8.68;5.75;;;;;;;34.07;36.13;160148.06;1632704;86;21773;-83
2021/05/16 03:55:55;;;;;;;9.15;5.97;;;;;;;34.13;36.17;160162.81;1634850;86;21380;-83
2021/05/16 03:58:28;;;;;;;9.73;5.87;;;;;;;34.20;36.20;160184.16;1642407;86;21348;-83
2021/05/16 04:01:00;;;;;;;9.25;4.75;;;;;;;34.22;36.45;160189.52;1641345;86;21177;-83
2021/05/16 04:03:33;;;;;;;7.25;5.05;;;;;;;34.46;36.36;160253.66;1636694;86;21355;-82
2021/05/16 04:06:05;;;;;;;22.37;6.67;;;;;;;36.61;34.29;160831.67;1651017;85;21340;-83
2021/05/16 04:08:38;;;;;;;5.92;4.05;;;;;;;34.54;36.19;160273.72;1649686;86;21809;-85
2021/05/16 04:11:10;;;;;;;6.12;4.12;;;;;;;34.39;36.53;160233.61;1638839;86;21872;-84
2021/05/16 04:13:44;;;;;;;6.53;3.70;;;;;;;34.49;36.59;160260.33;1636663;86;21243;-84
2021/05/16 04:16:16;;;;;;;8.13;3.77;;;;;;;34.55;36.64;160276.34;1642908;86;21356;-84
2021/05/16 04:18:50;;;;;;;8.43;5.10;;;;;;;34.58;36.78;160284.44;1639774;86;21404;-84
2021/05/16 04:21:23;;;;;;;4.45;3.72;;;;;;;34.66;36.82;160307.16;1647030;85;21279;-84
2021/05/16 04:23:55;;;;;;;7.83;4.72;;;;;;;34.71;36.86;160319.19;1644720;86;21720;-84
2021/05/16 04:26:28;;;;;;;5.97;4.37;;;;;;;34.76;36.78;160333.89;1659945;86;21778;-84
2021/05/16 04:29:01;;;;;;;5.22;3.95;;;;;;;34.79;36.76;160341.92;1657877;86;21237;-84
2021/05/16 04:31:33;;;;;;;6.67;4.47;;;;;;;34.84;36.75;160355.27;1643996;86;21288;-84
2021/05/16 04:34:06;;;;;;;6.72;4.55;;;;;;;34.91;36.69;160374.02;1648286;86;21475;-84
2021/05/16 04:36:38;;;;;;;6.12;3.80;;;;;;;34.75;36.98;160331.22;1635128;86;21173;-85
2021/05/16 04:39:11;;;;;;;4.03;3.55;;;;;;;34.76;36.97;160333.89;1646962;86;21268;-84
2021/05/16 04:41:44;;;;;;;6.90;4.62;;;;;;;34.78;36.99;160339.25;1645740;86;21830;-84
2021/05/16 04:44:16;;;;;;;6.20;4.72;;;;;;;34.81;37.18;160347.28;1647412;86;21256;-84
2021/05/16 04:46:49;;;;;;;8.70;5.05;;;;;;;34.89;37.09;160367.34;1647967;86;21343;-84
2021/05/16 04:49:22;;;;;;;6.65;4.75;;;;;;;34.93;37.14;160378.00;1651008;86;21896;-84
2021/05/16 04:51:54;;;;;;;8.28;5.30;;;;;;;34.88;37.51;160364.66;1645502;86;21222;-83
2021/05/16 04:54:27;;;;;;;7.65;4.40;;;;;;;34.96;37.63;160387.34;1644560;86;21744;-83
2021/05/16 04:56:59;;;;;;;6.83;5.08;;;;;;;34.99;37.81;160395.39;1656301;86;21199;-83
2021/05/16 04:59:32;;;;;;;6.08;4.78;;;;;;;35.13;37.84;160432.88;1648717;86;21201;-84
2021/05/16 05:02:06;;;;;;;7.72;5.42;;;;;;;35.29;37.66;160475.69;1632161;86;21194;-84
2021/05/16 05:04:39;;;;;;;8.85;5.30;;;;;;;35.34;37.73;160489.03;1647820;86;21256;-84
2021/05/16 05:07:11;;;;;;;8.18;5.58;;;;;;;35.42;37.93;160511.78;1633083;86;21312;-84
2021/05/16 05:09:44;;;;;;;8.28;5.83;;;;;;;35.46;38.16;160521.13;1648522;86;21333;-82
2021/05/16 05:12:16;;;;;;;8.80;5.50;;;;;;;35.54;38.22;160543.94;1645158;86;21288;-85
2021/05/16 05:14:48;;;;;;;7.78;5.30;;;;;;;35.52;38.60;160537.27;1648472;86;21796;-85
2021/05/16 05:17:21;;;;;;;10.05;5.78;;;;;;;35.61;38.75;160561.31;1643672;86;21288;-84
2021/05/16 05:19:53;;;;;;;8.20;5.40;;;;;;;35.64;38.69;160569.36;1643395;87;21394;-85
2021/05/16 05:22:25;;;;;;;8.18;6.45;;;;;;;35.75;38.76;160598.78;1656316;86;21306;-85
2021/05/16 05:24:58;;;;;;;7.42;6.22;;;;;;;35.77;38.84;160604.09;1649719;86;21689;-85
2021/05/16 05:27:30;;;;;;;10.15;6.53;;;;;;;37.01;38.19;160938.83;1660702;86;22489;-85
2021/05/16 05:30:05;;;;;;;13.05;7.33;;;;;;;35.95;39.08;160652.28;1636805;86;21182;-86
2021/05/16 05:32:37;;;;;;;7.78;6.78;;;;;;;36.02;39.30;160671.03;1631762;87;21366;-85
2021/05/16 05:35:10;;;;;;;10.10;7.35;;;;;;;35.99;39.77;160663.05;1619790;88;21325;-86
2021/05/16 05:37:43;;;;;;;9.40;7.12;;;;;;;38.38;36.95;161307.28;1651657;86;21229;-85
2021/05/16 05:40:16;;;;;;;10.38;7.60;;;;;;;38.81;36.43;161422.61;1647218;86;21199;-85
2021/05/16 05:42:49;;;;;;;12.82;6.83;;;;;;;38.99;36.06;161472.22;1632997;88;21714;-85
2021/05/16 05:45:22;;;;;;;13.40;7.70;;;;;;;39.03;36.04;161484.28;1645495;86;21367;-85
2021/05/16 05:47:54;;;;;;;11.45;8.13;;;;;;;39.30;35.76;161556.69;1660752;85;21268;-86
2021/05/16 05:50:26;;;;;;;10.95;7.87;;;;;;;39.29;35.75;161552.69;1642417;86;21313;-86
2021/05/16 05:53:02;;;;;;;10.53;7.53;;;;;;;39.36;35.61;161572.81;1633056;86;21261;-87
2021/05/16 05:55:34;;;;;;;10.15;7.42;;;;;;;39.49;35.51;161606.31;1617781;88;21868;-87
2021/05/16 05:58:06;;;;;;;11.00;7.80;;;;;;;39.32;35.65;161560.75;1632208;88;21345;-87
2021/05/16 06:00:39;;;;;;;12.70;8.48;;;;;;;39.43;35.59;161590.23;1658336;85;21193;-87
2021/05/16 06:03:11;;;;;;;12.88;7.67;;;;;;;39.46;35.61;161599.61;1660944;86;21241;-86
2021/05/16 06:05:45;;;;;;;10.63;8.03;;;;;;;39.36;35.91;161571.44;1660932;86;21382;-87
2021/05/16 06:08:18;;;;;;;13.38;8.05;;;;;;;39.43;35.66;161591.55;1613512;88;21777;-87
2021/05/16 06:10:51;;;;;;;12.80;8.10;;;;;;;38.70;35.88;161394.45;1648659;86;21335;-87
2021/05/16 06:13:24;;;;;;;11.28;6.85;;;;;;;39.52;35.42;161615.78;1660704;85;21221;-87
2021/05/16 06:15:56;;;;;;;10.68;6.58;;;;;;;39.95;35.22;161731.16;1630627;86;21294;-86
2021/05/16 06:18:29;;;;;;;7.90;6.50;;;;;;;40.00;35.11;161744.53;1660945;86;21202;-87
2021/05/16 06:21:01;;;;;;;7.47;5.05;;;;;;;39.99;34.95;161743.22;1648242;86;21206;-87
2021/05/16 06:23:43;;;;;;;5.62;4.50;;;;;;;40.08;34.54;161767.34;1627523;87;21222;-87
2021/05/16 06:26:07;;;;;;;4.28;3.60;;;;;;;39.67;34.33;161654.66;1635585;86;21297;-87
2021/05/16 06:28:40;;;;;;;4.67;3.22;;;;;;;40.19;33.83;161795.55;1660384;85;21248;-87
2021/05/16 06:31:14;;;;;;;4.75;3.10;;;;;;;39.99;33.76;161741.84;1658681;86;21736;-86
2021/05/16 06:33:47;;;;;;;6.55;4.12;;;;;;;39.98;33.53;161740.53;1653167;86;21565;-87
2021/05/16 06:36:20;;;;;;;5.08;3.25;;;;;;;40.42;33.02;161858.63;1605062;87;22000;-86
2021/05/16 06:38:53;;;;;;;5.20;3.12;;;;;;;40.61;32.68;161908.28;1648960;86;21245;-86
2021/05/16 06:41:26;;;;;;;5.28;2.80;;;;;;;40.44;32.79;161864.00;1641142;86;22711;-86
2021/05/16 06:43:59;;;;;;;5.00;2.98;;;;;;;40.74;32.53;161944.59;1630119;86;21201;-86
2021/05/16 06:46:32;;;;;;;5.08;3.20;;;;;;;40.81;32.50;161963.36;1649683;86;21245;-84
2021/05/16 06:49:06;;;;;;;2.98;2.67;;;;;;;40.80;32.53;161959.36;1641845;85;21760;-84
2021/05/16 06:51:38;;;;;;;2.30;2.00;;;;;;;40.98;32.01;162008.97;1649632;86;21236;-88
2021/05/16 06:54:11;;;;;;;3.52;2.20;;;;;;;41.25;31.68;162082.89;1649003;87;21293;-86
2021/05/16 06:56:45;;;;;;;2.72;2.30;;;;;;;38.91;33.74;161450.73;1604758;88;21599;-83
2021/05/16 06:59:17;;;;;;;3.30;2.30;;;;;;;38.70;34.08;161394.45;1634427;85;21709;-83
2021/05/16 07:01:50;;;;;;;2.83;2.02;;;;;;;38.81;34.16;161423.94;1659617;86;21213;-84
2021/05/16 07:04:23;;;;;;;2.95;2.33;;;;;;;38.79;34.15;161417.25;1654345;85;21202;-84
2021/05/16 07:06:55;;;;;;;3.35;2.00;;;;;;;38.89;34.04;161444.05;1644873;86;21257;-83
2021/05/16 07:09:37;;;;;;;4.72;1.87;;;;;;;38.92;33.95;161453.42;1636569;86;21222;-83
2021/05/16 07:12:15;;;;;;;3.65;1.80;;;;;;;39.00;33.67;161474.91;1630653;86;21265;-83
2021/05/16 07:14:53;;;;;;;4.95;1.90;;;;;;;39.05;33.52;161488.28;1630169;86;21805;-84
2021/05/16 07:17:25;;;;;;;6.55;1.90;;;;;;;39.13;33.47;161509.77;1632091;86;21409;-86
2021/05/16 07:20:00;;;;;;;2.37;1.80;;;;;;;39.19;33.61;161527.19;1632448;86;21900;-86
2021/05/16 07:22:38;;;;;;;2.72;1.55;;;;;;;39.25;33.69;161541.94;1632389;86;21375;-85
2021/05/16 07:25:17;;;;;;;2.65;1.80;;;;;;;39.33;33.64;161563.44;1639163;85;21425;-84
2021/05/16 07:27:58;;;;;;;2.55;1.30;;;;;;;39.47;33.44;161602.30;1592895;88;21801;-88
2021/05/16 07:30:30;;;;;;;1.65;1.55;;;;;;;39.55;33.15;161622.47;1613554;88;21412;-87
2021/05/16 07:33:03;;;;;;;2.90;1.20;;;;;;;39.66;32.88;161651.97;1610292;88;21781;-85
2021/05/16 07:35:36;;;;;;;1.30;1.20;;;;;;;39.70;32.60;161662.72;1596051;90;21282;-85
2021/05/16 07:38:09;;;;;;;1.17;0.93;;;;;;;39.80;32.54;161689.53;1597745;88;21349;-85
2021/05/16 07:40:41;;;;;;;1.25;1.10;;;;;;;39.86;32.42;161706.97;1605808;87;21278;-83
2021/05/16 07:43:15;;;;;;;3.20;1.35;;;;;;;39.95;32.30;161731.16;1608834;88;21297;-85
2021/05/16 07:45:47;;;;;;;1.92;1.05;;;;;;;40.04;32.23;161755.28;1617021;86;21351;-83
2021/05/16 07:48:28;;;;;;;1.90;1.15;;;;;;;40.18;32.10;161794.17;1619364;88;21768;-86
2021/05/16 07:50:53;;;;;;;3.75;1.57;;;;;;;40.23;31.96;161807.61;1622815;88;21652;-81
2021/05/16 07:53:26;;;;;;;4.62;2.25;;;;;;;40.36;31.67;161842.55;1608562;88;21396;-83
2021/05/16 07:55:59;;;;;;;5.65;1.45;;;;;;;40.43;31.56;161861.31;1620867;87;21247;-83
2021/05/16 07:58:31;;;;;;;3.12;1.52;;;;;;;40.57;31.27;161898.91;1608750;88;21745;-82
2021/05/16 08:01:04;;;;;;;2.47;1.65;;;;;;;40.70;31.29;161932.41;1605372;87;21257;-81
2021/05/16 08:03:37;;;;;;;2.47;1.65;;;;;;;40.63;30.95;161913.66;1608180;88;21373;-82
2021/05/16 08:06:10;;;;;;;3.75;1.70;;;;;;;40.67;30.74;161925.72;1609373;87;21250;-85
2021/05/16 08:08:42;;;;;;;4.90;1.50;;;;;;;40.77;30.79;161952.61;1583621;90;22335;-81
2021/05/16 08:11:15;;;;;;;4.83;1.52;;;;;;;40.83;30.83;161968.73;1577007;88;21802;-81
2021/05/16 08:13:48;;;;;;;4.90;1.70;;;;;;;40.91;30.75;161991.52;1573691;90;21288;-83
2021/05/16 08:16:20;;;;;;;3.50;1.20;;;;;;;41.25;30.39;162081.52;1598726;88;21305;-82
2021/05/16 08:18:53;;;;;;;3.37;1.20;;;;;;;41.12;30.35;162047.94;1592194;88;21350;-84
2021/05/16 08:21:26;;;;;;;2.05;1.35;;;;;;;41.17;30.33;162060.06;1606971;88;21796;-86
2021/05/16 08:23:58;;;;;;;2.45;1.25;;;;;;;41.22;30.18;162073.45;1611554;88;21286;-86
2021/05/16 08:26:30;;;;;;;1.75;1.42;;;;;;;41.25;29.74;162081.52;1603954;88;21219;-85
2021/05/16 08:29:04;;;;;;;3.02;2.00;;;;;;;41.36;29.60;162111.05;1617110;88;21224;-86
2021/05/16 08:31:37;;;;;;;1.70;1.40;;;;;;;41.39;29.66;162119.13;1606745;87;21254;-86
2021/05/16 08:34:10;;;;;;;1.80;1.12;;;;;;;41.52;29.63;162154.03;1593573;88;21246;-86
2021/05/16 08:36:44;;;;;;;1.07;0.98;;;;;;;41.62;29.53;162182.25;1607967;88;21327;-83
2021/05/16 08:39:17;;;;;;;1.10;1.00;;;;;;;41.69;29.51;162199.70;1594490;88;21439;-82
2021/05/16 08:41:49;;;;;;;1.40;0.88;;;;;;;41.68;29.26;162198.37;1577079;89;21298;-82
2021/05/16 08:44:23;;;;;;;1.17;0.70;;;;;;;41.79;29.22;162227.92;1592795;89;21244;-83
2021/05/16 08:46:57;;;;;;;3.40;0.95;;;;;;;41.88;29.16;162252.08;1602418;88;21210;-82
2021/05/16 08:49:30;;;;;;;4.72;0.80;;;;;;;41.94;29.07;162268.22;1603737;88;21370;-82
2021/05/16 08:52:02;;;;;;;3.22;0.80;;;;;;;42.05;28.96;162299.14;1603907;88;21232;-82
2021/05/16 08:54:36;;;;;;;0.75;0.70;;;;;;;42.14;28.42;162321.98;1605075;88;21231;-82
2021/05/16 08:57:09;;;;;;;2.80;0.82;;;;;;;42.22;28.10;162343.47;1604538;89;21272;-82
2021/05/16 09:00:18;;;;;;;1.30;0.90;;;;;;;42.24;27.87;162348.84;1595826;88;21699;-81
2021/05/16 09:03:12;;;;;;;1.10;0.80;;;;;;;42.31;27.77;162369.00;1621940;87;21753;-82
2021/05/16 09:05:52;;;;;;;1.55;0.62;;;;;;;42.35;27.95;162379.81;1582228;90;21891;-83
2021/05/16 09:08:26;;;;;;;;;;;;;;;42.38;27.87;162387.83;1632425;87;21321;-82
2021/05/16 09:11:00;;;;;;;0.50;0.50;;;;;;;42.48;27.62;162413.38;1620836;87;20237;-83
2021/05/16 09:13:46;;;;;;;2.37;0.72;;;;;;;42.50;27.56;162420.08;1586096;89;21797;-81
2021/05/16 09:16:14;;;;;;;0.60;0.60;;;;;;;42.58;27.42;162441.61;1576849;89;21733;-83
2021/05/16 09:18:50;;;;;;;0.70;0.70;;;;;;;42.89;27.05;162526.27;1589128;89;21775;-85
2021/05/16 09:21:30;;;;;;;0.85;0.62;;;;;;;42.80;27.05;162499.41;1585598;89;21180;-82
2021/05/16 09:24:10;;;;;;;0.40;0.40;;;;;;;42.76;27.09;162490.00;1582082;90;21361;-83
2021/05/16 09:27:01;;;;;;;0.95;0.70;;;;;;;42.91;27.20;162531.66;1573849;90;21429;-82
2021/05/16 09:29:40;;;;;;;0.80;0.55;;;;;;;43.08;27.13;162575.98;1613229;87;21226;-82
2021/05/16 09:32:08;;;;;;;1.00;0.72;;;;;;;43.10;27.34;162582.75;1609709;88;21242;-83
2021/05/16 09:34:40;;;;;;;1.75;0.60;;;;;;;43.01;27.33;162557.19;1633103;86;21232;-83
2021/05/16 09:37:13;;;;;;;1.62;0.78;;;;;;;43.04;27.03;162566.59;1597798;88;21246;-88
2021/05/16 09:39:46;;;;;;;2.58;1.30;;;;;;;43.25;27.00;162623.08;1629674;87;21771;-84
2021/05/16 09:42:19;;;;;;;3.90;1.75;;;;;;;43.31;26.98;162637.86;1632510;87;21252;-84
2021/05/16 09:44:54;;;;;;;2.77;0.70;;;;;;;43.26;26.94;162625.78;1630410;88;21763;-85
2021/05/16 09:47:27;;;;;;;1.10;0.60;;;;;;;43.29;27.03;162633.84;1634854;88;21247;-84
2021/05/16 09:50:03;;;;;;;1.17;0.72;;;;;;;43.44;27.08;162674.19;1632492;86;21212;-84
2021/05/16 09:52:36;;;;;;;2.77;0.72;;;;;;;43.49;27.03;162687.59;1614565;88;21265;-86
2021/05/16 09:55:13;;;;;;;0.65;0.65;;;;;;;43.61;27.14;162718.59;1621666;88;21183;-82
2021/05/16 09:57:46;;;;;;;0.95;0.65;;;;;;;43.66;27.15;162733.37;1644474;87;21759;-85
2021/05/16 10:00:19;;;;;;;2.15;0.70;;;;;;;43.69;26.91;162741.45;1593556;87;21322;-86
2021/05/16 10:02:52;;;;;;;0.65;0.60;;;;;;;43.77;26.81;162761.58;1606616;88;21305;-85
2021/05/16 10:05:24;;;;;;;0.80;0.80;;;;;;;43.80;27.01;162769.66;1630327;87;21240;-84
2021/05/16 10:07:56;;;;;;;0.95;0.70;;;;;;;46.03;25.50;163374.00;1643869;86;21207;-84
2021/05/16 10:10:30;;;;;;;5.60;0.80;;;;;;;46.16;25.40;163410.44;1630721;87;21345;-85
2021/05/16 10:13:03;;;;;;;2.15;0.60;;;;;;;46.20;25.16;163419.86;1619532;88;21757;-85
2021/05/16 10:15:36;;;;;;;0.68;0.50;;;;;;;46.22;25.11;163425.25;1602085;88;21724;-86
2021/05/16 10:18:08;;;;;;;0.68;0.47;;;;;;;46.40;25.09;163473.69;1613957;87;21765;-85
2021/05/16 10:20:42;;;;;;;0.85;0.70;;;;;;;46.38;25.04;163469.67;1612865;88;21235;-85
2021/05/16 10:23:15;;;;;;;3.35;0.60;;;;;;;46.93;24.37;163617.89;1610166;87;21823;-86
2021/05/16 10:25:48;;;;;;;0.80;0.80;;;;;;;46.63;24.48;163535.69;1595304;88;21170;-85
2021/05/16 10:28:22;;;;;;;1.15;0.60;;;;;;;46.53;24.46;163508.77;1624242;86;21373;-85
2021/05/16 10:31:06;;;;;;;0.80;0.60;;;;;;;46.47;24.49;163493.95;1572326;89;21236;-86
2021/05/16 10:33:42;;;;;;;1.30;0.53;;;;;;;46.37;24.56;163465.59;1603457;89;21711;-86
2021/05/16 10:36:14;;;;;;;0.93;0.50;;;;;;;46.25;24.63;163433.28;1575590;90;21259;-86
2021/05/16 10:38:49;;;;;;;0.80;0.50;;;;;;;47.02;23.69;163643.50;1613836;87;21833;-85
2021/05/16 10:41:24;;;;;;;1.32;0.50;;;;;;;47.02;23.69;163643.50;1586605;89;21206;-87
2021/05/16 10:44:29;;;;;;;1.67;0.40;;;;;;;47.04;23.65;163647.53;1591103;90;21785;-85
2021/05/16 10:47:01;;;;;;;1.25;0.50;;;;;;;46.89;23.55;163608.48;1628808;87;21198;-86
2021/05/16 10:49:35;;;;;;;2.55;0.68;;;;;;;46.77;23.54;163574.72;1622935;87;21254;-85
2021/05/16 10:52:32;;;;;;;0.65;0.65;;;;;;;46.94;23.71;163621.92;1630567;87;21256;-85
2021/05/16 10:55:06;;;;;;;1.00;0.60;;;;;;;46.48;24.04;163496.66;1628340;87;21245;-84
2021/05/16 10:57:40;;;;;;;0.85;0.60;;;;;;;46.87;24.13;163601.75;1628767;87;21286;-84
2021/05/16 11:00:25;;;;;;;0.70;0.50;;;;;;;45.97;24.60;163357.87;1626302;87;21194;-83
2021/05/16 11:03:14;;;;;;;2.02;1.22;;;;;;;47.10;23.99;163663.72;1629206;87;21262;-85
2021/05/16 11:05:53;;;;;;;0.88;0.50;;;;;;;46.82;23.90;163586.95;1613807;86;21199;-84
2021/05/16 11:08:36;;;;;;;0.57;0.50;;;;;;;46.79;23.46;163580.12;1623721;87;21746;-84
2021/05/16 11:11:35;;;;;;;2.27;0.60;;;;;;;47.15;23.63;163677.16;1627490;87;21253;-84
2021/05/16 11:14:22;;;;;;;0.60;0.57;;;;;;;47.23;23.56;163698.75;1590250;88;21166;-83
2021/05/16 11:17:03;;;;;;;0.50;0.50;;;;;;;46.69;23.73;163551.88;1588987;89;21252;-85
2021/05/16 11:19:37;;;;;;;1.40;0.50;;;;;;;46.74;23.65;163565.31;1577921;89;21258;-83
2021/05/16 11:22:16;;;;;;;4.22;0.85;;;;;;;47.28;23.71;163712.23;1582701;89;21277;-83
2021/05/16 11:24:51;;;;;;;4.65;0.80;;;;;;;47.55;23.83;163785.06;1618508;87;21332;-83
2021/05/16 11:27:32;;;;;;;0.75;0.42;;;;;;;47.08;23.84;163659.64;1577599;90;21530;-84
2021/05/16 11:30:11;;;;;;;0.60;0.53;;;;;;;47.06;23.71;163652.92;1626047;87;21270;-84
2021/05/16 11:32:43;;;;;;;1.32;0.60;;;;;;;47.06;23.71;163652.92;1633348;87;21761;-84
2021/05/16 11:35:21;;;;;;;0.57;0.57;;;;;;;47.35;23.43;163731.08;1628872;87;21787;-84
2021/05/16 11:37:56;;;;;;;0.98;0.57;;;;;;;47.14;23.74;163674.45;1633244;87;21226;-84
2021/05/16 11:40:33;;;;;;;0.68;0.40;;;;;;;46.89;23.63;163607.11;1619204;87;21234;-84
2021/05/16 11:43:09;;;;;;;0.70;0.50;;;;;;;46.43;23.93;163483.11;1621068;87;21255;-86
2021/05/16 11:45:43;;;;;;;0.50;0.40;;;;;;;46.45;24.14;163487.19;1630054;87;21257;-84
2021/05/16 11:48:31;;;;;;;0.50;0.50;;;;;;;46.45;24.14;163487.19;1632139;87;21717;-85
2021/05/16 11:51:11;;;;;;;0.70;0.65;;;;;;;47.75;23.49;163840.27;1625122;87;21250;-87
2021/05/16 11:53:47;;;;;;;1.65;0.60;;;;;;;46.80;23.55;163584.19;1626320;87;21881;-86
2021/05/16 11:56:22;;;;;;;0.53;0.53;;;;;;;46.72;23.58;163561.28;1623724;87;21246;-86